createdAt,value
2019-06-26T00:00:20.375Z,23.90
2019-06-26T00:03:26.143Z,23.90
2019-06-26T00:06:31.854Z,24.00
2019-06-26T00:09:37.502Z,23.90
2019-06-26T00:12:44.794Z,23.90
2019-06-26T00:15:50.329Z,23.90
2019-06-26T00:18:55.998Z,23.90
2019-06-26T00:22:01.779Z,23.90
2019-06-26T00:25:08.638Z,23.80
2019-06-26T00:28:15.314Z,23.80
2019-06-26T00:31:22.104Z,23.80
2019-06-26T00:34:27.752Z,23.80
2019-06-26T00:37:33.472Z,23.70
2019-06-26T00:40:40.214Z,23.70
2019-06-26T00:43:47.680Z,23.70
2019-06-26T00:46:53.326Z,23.70
2019-06-26T00:49:59.970Z,23.70
2019-06-26T00:53:05.869Z,23.60
2019-06-26T00:56:11.689Z,23.60
2019-06-26T00:59:18.315Z,23.60
2019-06-26T01:02:23.963Z,23.60
2019-06-26T01:05:29.617Z,23.60
2019-06-26T01:08:35.318Z,23.50
2019-06-26T01:11:41.139Z,23.50
2019-06-26T01:14:46.862Z,23.50
2019-06-26T01:17:52.738Z,23.50
2019-06-26T01:20:58.403Z,23.50
2019-06-26T01:24:05.123Z,23.50
2019-06-26T01:27:10.839Z,23.50
2019-06-26T01:30:17.862Z,23.50
2019-06-26T01:33:23.419Z,23.50
2019-06-26T01:36:29.023Z,23.40
2019-06-26T01:39:35.771Z,23.40
2019-06-26T01:42:41.327Z,23.40
2019-06-26T01:45:46.975Z,23.40
2019-06-26T01:48:52.602Z,23.40
2019-06-26T01:51:58.310Z,23.30
2019-06-26T01:55:03.931Z,23.30
2019-06-26T01:58:09.697Z,23.40
2019-06-26T02:01:16.806Z,23.30
2019-06-26T02:04:24.067Z,23.30
2019-06-26T02:07:29.651Z,23.30
2019-06-26T02:10:37.745Z,23.30
2019-06-26T02:13:43.383Z,23.30
2019-06-26T02:16:49.171Z,23.30
2019-06-26T02:19:54.897Z,23.30
2019-06-26T02:23:01.609Z,23.30
2019-06-26T02:26:08.927Z,23.30
2019-06-26T02:29:14.483Z,23.20
2019-06-26T02:32:20.179Z,23.20
2019-06-26T02:35:26.691Z,23.30
2019-06-26T02:38:32.318Z,23.30
2019-06-26T02:41:37.867Z,23.20
2019-06-26T02:44:53.490Z,23.20
2019-06-26T02:47:52.345Z,23.10
2019-06-26T02:50:57.995Z,23.20
2019-06-26T02:54:03.689Z,23.20
2019-06-26T02:57:09.174Z,23.20
2019-06-26T03:00:15.013Z,23.20
2019-06-26T03:03:20.615Z,23.10
2019-06-26T03:06:26.254Z,23.10
2019-06-26T03:09:31.854Z,23.10
2019-06-26T03:12:37.546Z,23.10
2019-06-26T03:15:43.299Z,23.10
2019-06-26T03:18:49.951Z,23.10
2019-06-26T03:21:56.498Z,23.10
2019-06-26T03:25:03.242Z,23.10
2019-06-26T03:28:08.983Z,23.00
2019-06-26T03:31:14.805Z,23.10
2019-06-26T03:34:20.465Z,23.00
2019-06-26T03:37:27.787Z,23.00
2019-06-26T03:40:35.175Z,23.00
2019-06-26T03:43:40.835Z,23.00
2019-06-26T03:46:46.700Z,23.00
2019-06-26T03:49:53.335Z,23.10
2019-06-26T03:52:59.025Z,23.00
2019-06-26T03:56:04.994Z,23.00
2019-06-26T03:59:11.962Z,23.00
2019-06-26T04:02:17.616Z,23.00
2019-06-26T04:05:24.235Z,23.00
2019-06-26T04:08:30.086Z,23.00
2019-06-26T04:11:36.714Z,23.00
2019-06-26T04:14:42.345Z,23.00
2019-06-26T04:17:48.059Z,23.00
2019-06-26T04:20:55.350Z,23.00
2019-06-26T04:24:01.837Z,23.00
2019-06-26T04:27:07.537Z,23.00
2019-06-26T04:30:13.677Z,23.10
2019-06-26T04:33:19.355Z,23.00
2019-06-26T04:36:26.753Z,23.00
2019-06-26T04:39:33.482Z,23.10
2019-06-26T04:42:40.326Z,23.10
2019-06-26T04:45:57.768Z,23.10
2019-06-26T04:48:54.146Z,23.10
2019-06-26T04:52:00.866Z,23.10
2019-06-26T04:55:06.984Z,23.10
2019-06-26T04:58:12.501Z,23.10
2019-06-26T05:01:18.102Z,23.10
2019-06-26T05:04:25.500Z,23.10
2019-06-26T05:07:32.122Z,23.10
2019-06-26T05:10:38.670Z,23.10
2019-06-26T05:13:44.314Z,23.10
2019-06-26T05:16:51.689Z,23.20
2019-06-26T05:19:57.311Z,23.20
2019-06-26T05:23:02.860Z,23.20
2019-06-26T05:26:08.513Z,23.20
2019-06-26T05:29:15.103Z,23.20
2019-06-26T05:32:20.744Z,23.20
2019-06-26T05:35:26.363Z,23.20
2019-06-26T05:38:35.566Z,23.20
2019-06-26T05:41:43.599Z,23.20
2019-06-26T05:44:49.230Z,23.30
2019-06-26T05:47:56.710Z,23.30
2019-06-26T05:51:02.376Z,23.30
2019-06-26T05:54:08.120Z,23.30
2019-06-26T05:57:15.031Z,23.30
2019-06-26T06:00:20.954Z,23.30
2019-06-26T06:03:26.513Z,23.30
2019-06-26T06:06:41.492Z,23.30
2019-06-26T06:09:40.628Z,23.30
2019-06-26T06:12:47.678Z,23.30
2019-06-26T06:15:53.298Z,23.30
2019-06-26T06:18:59.042Z,23.30
2019-06-26T06:22:06.523Z,23.30
2019-06-26T06:25:12.382Z,23.30
2019-06-26T06:28:19.778Z,23.40
2019-06-26T06:31:26.446Z,23.30
2019-06-26T06:34:32.122Z,23.30
2019-06-26T06:37:37.786Z,23.30
2019-06-26T06:40:43.437Z,23.30
2019-06-26T06:43:50.125Z,23.30
2019-06-26T06:47:03.929Z,23.40
2019-06-26T06:50:04.053Z,23.40
2019-06-26T06:53:09.627Z,23.40
2019-06-26T06:56:15.881Z,23.40
2019-06-26T06:59:21.541Z,23.40
2019-06-26T07:02:27.219Z,23.40
2019-06-26T07:05:32.856Z,23.40
2019-06-26T07:08:38.613Z,23.40
2019-06-26T07:11:45.769Z,23.40
2019-06-26T07:14:51.339Z,23.40
2019-06-26T07:17:57.000Z,23.40
2019-06-26T07:21:04.067Z,23.40
2019-06-26T07:24:09.737Z,23.40
2019-06-26T07:27:15.386Z,23.50
2019-06-26T07:30:21.777Z,23.40
2019-06-26T07:33:28.650Z,23.40
2019-06-26T07:36:35.347Z,23.40
2019-06-26T07:39:40.965Z,23.40
2019-06-26T07:42:47.674Z,23.50
2019-06-26T07:45:53.270Z,23.50
2019-06-26T07:48:58.922Z,23.50
2019-06-26T07:52:04.807Z,23.50
2019-06-26T07:55:12.301Z,23.50
2019-06-26T07:58:19.272Z,23.50
2019-06-26T08:01:24.932Z,23.50
2019-06-26T08:04:30.709Z,23.50
2019-06-26T08:07:38.669Z,23.50
2019-06-26T08:10:44.495Z,23.60
2019-06-26T08:13:50.267Z,23.50
2019-06-26T08:16:55.856Z,23.50
2019-06-26T08:20:01.530Z,23.50
2019-06-26T08:23:07.204Z,23.50
2019-06-26T08:26:12.947Z,23.50
2019-06-26T08:29:18.596Z,23.50
2019-06-26T08:32:26.051Z,23.60
2019-06-26T08:35:31.536Z,23.50
2019-06-26T08:38:38.286Z,23.60
2019-06-26T08:41:44.861Z,23.60
2019-06-26T08:44:50.460Z,23.60
2019-06-26T08:47:57.926Z,23.60
2019-06-26T08:51:03.728Z,23.60
2019-06-26T08:54:11.121Z,23.60
2019-06-26T08:57:18.477Z,23.60
2019-06-26T09:00:24.318Z,23.60
2019-06-26T09:03:33.423Z,23.60
2019-06-26T09:06:40.073Z,23.60
2019-06-26T09:09:46.731Z,23.60
2019-06-26T09:12:53.481Z,23.60
2019-06-26T09:15:59.147Z,23.60
2019-06-26T09:19:04.927Z,23.70
2019-06-26T09:22:11.536Z,23.60
2019-06-26T09:25:22.147Z,23.70
2019-06-26T09:28:25.482Z,23.70
2019-06-26T09:31:32.195Z,23.70
2019-06-26T09:34:39.627Z,23.70
2019-06-26T09:37:47.211Z,23.70
2019-06-26T09:40:52.770Z,23.70
2019-06-26T09:43:59.867Z,23.70
2019-06-26T09:47:07.615Z,23.70
2019-06-26T09:50:13.614Z,23.70
2019-06-26T09:53:19.956Z,23.70
2019-06-26T09:56:27.579Z,23.70
2019-06-26T09:59:34.226Z,23.70
2019-06-26T10:02:40.688Z,23.70
2019-06-26T10:05:48.023Z,23.70
2019-06-26T10:08:54.681Z,23.70
2019-06-26T10:12:01.035Z,23.70
2019-06-26T10:15:09.010Z,23.70
2019-06-26T10:18:14.772Z,23.70
2019-06-26T10:21:23.574Z,23.70
2019-06-26T10:24:30.467Z,23.70
2019-06-26T10:27:37.380Z,23.70
2019-06-26T10:30:48.872Z,23.70
2019-06-26T10:33:55.363Z,23.70
2019-06-26T10:37:01.631Z,23.70
2019-06-26T10:40:08.353Z,23.70
2019-06-26T10:43:16.251Z,23.70
2019-06-26T10:46:22.748Z,23.70
2019-06-26T10:49:29.561Z,23.70
2019-06-26T10:52:37.436Z,23.70
2019-06-26T10:55:43.758Z,23.70
2019-06-26T10:58:50.181Z,23.70
2019-06-26T11:01:58.043Z,23.70
2019-06-26T11:05:08.425Z,23.70
2019-06-26T11:08:14.545Z,23.70
2019-06-26T11:11:21.239Z,23.70
2019-06-26T11:14:26.902Z,23.70
2019-06-26T11:17:32.552Z,23.70
2019-06-26T11:20:41.198Z,23.80
2019-06-26T11:23:48.129Z,23.70
2019-06-26T11:26:53.811Z,23.70
2019-06-26T11:30:00.499Z,23.70
2019-06-26T11:33:06.242Z,23.70
2019-06-26T11:36:13.442Z,23.70
2019-06-26T11:39:20.622Z,23.70
2019-06-26T11:42:26.264Z,23.70
2019-06-26T11:45:35.564Z,23.70
2019-06-26T11:48:42.292Z,23.70
2019-06-26T11:51:49.000Z,23.70
2019-06-26T11:55:02.728Z,23.70
2019-06-26T11:58:01.902Z,23.70
2019-06-26T12:01:07.696Z,23.70
2019-06-26T12:04:16.759Z,23.70
2019-06-26T12:07:24.286Z,23.70
2019-06-26T12:10:31.709Z,23.70
2019-06-26T12:13:38.225Z,23.70
2019-06-26T12:16:44.422Z,23.70
2019-06-26T12:19:50.660Z,23.70
2019-06-26T12:22:56.771Z,23.70
2019-06-26T12:26:03.685Z,23.80
2019-06-26T12:29:11.506Z,23.70
2019-06-26T12:32:17.887Z,23.70
2019-06-26T12:35:24.879Z,23.70
2019-06-26T12:38:31.000Z,23.80
2019-06-26T12:41:39.335Z,23.70
2019-06-26T12:44:45.446Z,23.80
2019-06-26T12:47:51.634Z,23.70
2019-06-26T12:50:57.606Z,23.70
2019-06-26T12:54:03.487Z,23.80
2019-06-26T12:57:09.059Z,23.70
2019-06-26T13:00:16.494Z,23.70
2019-06-26T13:03:23.034Z,23.80
2019-06-26T13:06:28.585Z,23.80
2019-06-26T13:09:34.289Z,23.80
2019-06-26T13:12:45.491Z,23.80
2019-06-26T13:15:51.387Z,23.80
2019-06-26T13:18:57.039Z,23.80
2019-06-26T13:22:02.695Z,23.80
2019-06-26T13:25:09.983Z,23.80
2019-06-26T13:28:15.623Z,23.80
2019-06-26T13:31:21.292Z,23.80
2019-06-26T13:34:26.992Z,23.90
2019-06-26T13:37:32.591Z,23.90
2019-06-26T13:40:41.116Z,23.90
2019-06-26T13:43:46.991Z,23.90
2019-06-26T13:46:52.896Z,23.80
2019-06-26T13:49:59.386Z,23.90
2019-06-26T13:53:05.749Z,23.80
2019-06-26T13:56:13.475Z,23.80
2019-06-26T13:59:19.444Z,23.90
2019-06-26T14:02:25.828Z,23.90
2019-06-26T14:05:33.841Z,23.90
2019-06-26T14:08:40.113Z,23.90
2019-06-26T14:11:46.043Z,23.90
2019-06-26T14:14:57.817Z,23.90
2019-06-26T14:18:00.189Z,23.90
2019-06-26T14:21:06.574Z,23.80
2019-06-26T14:24:12.639Z,23.90
2019-06-26T14:27:19.287Z,23.90
2019-06-26T14:30:28.079Z,23.90
2019-06-26T14:33:35.237Z,23.90
2019-06-26T14:36:40.915Z,23.90
2019-06-26T14:39:47.615Z,23.90
2019-06-26T14:42:53.315Z,24.00
2019-06-26T14:45:59.106Z,24.10
2019-06-26T14:49:04.700Z,24.10
2019-06-26T14:52:11.280Z,24.10
2019-06-26T14:55:17.770Z,24.10
2019-06-26T14:58:23.454Z,24.10
2019-06-26T15:01:29.106Z,24.20
2019-06-26T15:04:35.818Z,24.20
2019-06-26T15:07:42.458Z,24.20
2019-06-26T15:10:48.187Z,24.20
2019-06-26T15:13:53.816Z,24.20
2019-06-26T15:16:59.531Z,24.20
2019-06-26T15:20:08.155Z,24.20
2019-06-26T15:23:15.552Z,24.20
2019-06-26T15:26:23.043Z,24.20
2019-06-26T15:29:28.684Z,24.30
2019-06-26T15:32:34.350Z,24.20
2019-06-26T15:35:39.937Z,24.20
2019-06-26T15:38:46.661Z,24.20
2019-06-26T15:41:53.255Z,24.30
2019-06-26T15:44:58.877Z,24.30
2019-06-26T15:48:04.555Z,24.30
2019-06-26T15:51:21.176Z,24.30
2019-06-26T15:54:27.873Z,24.30
2019-06-26T15:57:33.571Z,24.30
2019-06-26T16:00:39.427Z,24.30
2019-06-26T16:03:45.087Z,24.30
2019-06-26T16:06:51.732Z,24.30
2019-06-26T16:09:57.452Z,24.30
2019-06-26T16:13:02.903Z,24.40
2019-06-26T16:16:09.947Z,24.40
2019-06-26T16:19:17.518Z,24.40
2019-06-26T16:22:32.314Z,24.40
2019-06-26T16:25:32.027Z,24.40
2019-06-26T16:28:37.875Z,24.40
2019-06-26T16:31:44.911Z,24.40
2019-06-26T16:34:50.516Z,24.40
2019-06-26T16:37:56.163Z,24.40
2019-06-26T16:41:02.723Z,24.40
2019-06-26T16:44:12.093Z,24.40
2019-06-26T16:47:19.104Z,24.40
2019-06-26T16:50:25.621Z,24.40
2019-06-26T16:53:31.387Z,24.40
2019-06-26T16:56:38.850Z,24.40
2019-06-26T16:59:44.566Z,24.40
2019-06-26T17:02:52.350Z,24.40
2019-06-26T17:06:00.800Z,24.40
2019-06-26T17:09:09.432Z,24.40
2019-06-26T17:12:16.168Z,24.40
2019-06-26T17:15:22.018Z,24.40
2019-06-26T17:18:28.310Z,24.40
2019-06-26T17:21:35.538Z,24.40
2019-06-26T17:24:42.858Z,24.40
2019-06-26T17:27:48.580Z,24.40
2019-06-26T17:30:54.359Z,24.40
2019-06-26T17:34:01.559Z,24.40
2019-06-26T17:37:08.163Z,24.40
2019-06-26T17:40:14.431Z,24.40
2019-06-26T17:43:20.815Z,24.40
2019-06-26T17:46:26.640Z,24.40
2019-06-26T17:49:32.539Z,24.40
2019-06-26T17:52:39.334Z,24.40
2019-06-26T17:55:44.969Z,24.40
2019-06-26T17:58:50.741Z,24.40
2019-06-26T18:01:56.371Z,24.40
2019-06-26T18:05:02.042Z,24.40
2019-06-26T18:08:09.859Z,24.40
2019-06-26T18:11:15.447Z,24.40
2019-06-26T18:14:22.558Z,24.40
2019-06-26T18:17:29.371Z,24.40
2019-06-26T18:20:37.466Z,24.40
2019-06-26T18:23:43.245Z,24.40
2019-06-26T18:26:50.003Z,24.40
2019-06-26T18:29:55.813Z,24.50
2019-06-26T18:33:01.595Z,24.50
2019-06-26T18:36:09.243Z,24.50
2019-06-26T18:39:15.092Z,24.50
2019-06-26T18:42:20.798Z,24.50
2019-06-26T18:45:26.601Z,24.50
2019-06-26T18:48:32.667Z,24.60
2019-06-26T18:51:38.379Z,24.60
2019-06-26T18:54:44.166Z,24.60
2019-06-26T18:57:49.862Z,24.60
2019-06-26T19:00:56.168Z,24.60
2019-06-26T19:04:01.946Z,24.60
2019-06-26T19:07:07.555Z,24.60
2019-06-26T19:10:13.351Z,24.60
2019-06-26T19:13:20.378Z,24.60
2019-06-26T19:16:26.365Z,24.70
2019-06-26T19:19:32.004Z,24.70
2019-06-26T19:22:37.675Z,24.70
2019-06-26T19:25:43.342Z,24.70
2019-06-26T19:28:48.982Z,24.70
2019-06-26T19:31:54.599Z,24.60
2019-06-26T19:35:07.991Z,24.60
2019-06-26T19:38:09.020Z,24.70
2019-06-26T19:41:15.107Z,24.70
2019-06-26T19:44:21.249Z,24.70
2019-06-26T19:47:28.955Z,24.70
2019-06-26T19:50:35.548Z,24.70
2019-06-26T19:53:43.394Z,24.80
2019-06-26T19:56:49.715Z,24.80
2019-06-26T19:59:56.046Z,24.80
2019-06-26T20:03:03.922Z,24.80
2019-06-26T20:06:10.064Z,24.80
2019-06-26T20:09:16.278Z,24.90
2019-06-26T20:12:22.499Z,24.90
2019-06-26T20:15:29.260Z,24.90
2019-06-26T20:18:35.771Z,24.90
2019-06-26T20:21:41.917Z,24.90
2019-06-26T20:24:49.342Z,24.90
2019-06-26T20:27:57.429Z,24.90
2019-06-26T20:31:08.542Z,24.90
2019-06-26T20:34:14.809Z,24.90
2019-06-26T20:37:21.289Z,24.90
2019-06-26T20:40:29.107Z,24.90
2019-06-26T20:43:35.870Z,24.90
2019-06-26T20:46:42.600Z,24.90
2019-06-26T20:49:53.252Z,24.90
2019-06-26T20:52:56.298Z,24.90
2019-06-26T20:56:05.528Z,25.00
2019-06-26T20:59:10.590Z,25.00
2019-06-26T21:02:16.879Z,25.00
2019-06-26T21:05:23.020Z,25.00
2019-06-26T21:08:29.708Z,25.00
2019-06-26T21:11:37.485Z,25.00
2019-06-26T21:14:44.931Z,24.90
2019-06-26T21:17:51.318Z,24.90
2019-06-26T21:20:57.218Z,24.90
2019-06-26T21:24:03.290Z,24.90
2019-06-26T21:27:09.448Z,24.90
2019-06-26T21:30:16.077Z,24.90
2019-06-26T21:33:22.055Z,24.90
2019-06-26T21:36:29.493Z,24.90
2019-06-26T21:39:35.339Z,24.90
2019-06-26T21:42:41.997Z,24.90
2019-06-26T21:45:50.145Z,24.90
2019-06-26T21:48:56.533Z,24.90
2019-06-26T21:52:02.487Z,24.90
2019-06-26T21:55:09.208Z,24.90
2019-06-26T21:58:33.980Z,24.80
2019-06-26T22:01:58.280Z,24.80
2019-06-26T22:05:22.378Z,24.80
2019-06-26T22:08:48.416Z,24.80
2019-06-26T22:11:55.984Z,24.80
2019-06-26T22:15:02.706Z,24.80
2019-06-26T22:18:10.420Z,24.80
2019-06-26T22:21:16.238Z,24.80
2019-06-26T22:24:22.189Z,24.70
2019-06-26T22:27:29.406Z,24.70
2019-06-26T22:30:37.085Z,24.70
2019-06-26T22:33:43.294Z,24.70
2019-06-26T22:36:52.195Z,24.70
2019-06-26T22:39:57.875Z,24.70
2019-06-26T22:43:04.404Z,24.70
2019-06-26T22:46:11.991Z,24.70
2019-06-26T22:49:18.415Z,24.70
2019-06-26T22:52:25.203Z,24.60
2019-06-26T22:55:30.951Z,24.60
2019-06-26T22:58:38.488Z,24.60
2019-06-26T23:01:44.142Z,24.70
2019-06-26T23:04:51.505Z,24.60
2019-06-26T23:07:57.156Z,24.70
2019-06-26T23:11:03.780Z,24.70
2019-06-26T23:14:14.684Z,24.60
2019-06-26T23:17:20.455Z,24.60
2019-06-26T23:20:27.629Z,24.60
2019-06-26T23:23:33.391Z,24.70
2019-06-26T23:26:39.059Z,24.60
2019-06-26T23:29:44.741Z,24.60
2019-06-26T23:37:30.491Z,24.60
2019-06-26T23:40:38.151Z,24.60
2019-06-26T23:43:43.773Z,24.50
2019-06-26T23:46:49.358Z,24.50
2019-06-26T23:49:56.823Z,24.50
2019-06-26T23:53:02.574Z,24.50
2019-06-26T23:56:08.280Z,24.50
2019-06-26T23:59:13.858Z,24.50
